Sweden, Maine
Current Conditions -  °F | °C
As of 4:54 PM on Friday 24 Oct 2014 (Local Time) from KIZG Reporting Station
Overcast Overcast  
Wind Chill: 51°   Ceiling: 2600
Heat Index: 51°   Visibility: 10mi
Dew Point: 42°   Wind: 5mph
Humidity: 71%   Direction: 30°NNE
Pressure: 29.67"   Gusts: NA
Location:  44.1001°N, 70.6448°W
Report Text: KIZG 242054Z AUTO 03004KT 10SM OVC026 11/06 A2967 RMK AO2 SLP049 T01060056 55005
Loading
Personal Weather Stations






























Interactive Weather Map
Tropical Storm Tracking
New forecast layout! Learn more

10-Day Weather Forecast

Advertisements
Track Severe Weather on mobile